Time;durP1;ratioP1;P1;durP2;ratioP2;P2;SDS_P1;SDS_P2;PMS_P1;PMS_P2;Temp;Humidity;BMP_temperature;BMP_pressure;BME280_temperature;BME280_humidity;BME280_pressure;Samples;Min_cycle;Max_cycle;Signal;HPM_P1;HPM_P2
2022/02/09 00:01:56;;;;;;;3.45;3.15;;;;;;;;;;5050856;28;20542;-75
2022/02/09 00:04:29;;;;;;;3.25;2.55;;;;;;;;;;5050878;28;20523;-77
2022/02/09 00:07:06;;;;;;;3.95;2.88;;;;;;;;;;5048821;28;20195;-75
2022/02/09 00:09:33;;;;;;;3.97;2.90;;;;;;;;;;5050460;28;20274;-76
2022/02/09 00:12:08;;;;;;;6.43;3.50;;;;;;;;;;5046754;28;20250;-75
2022/02/09 00:14:48;;;;;;;3.88;3.40;;;;;;;;;;5046154;28;20260;-75
2022/02/09 00:17:31;;;;;;;2.30;2.10;;;;;;;;;;5041254;28;20194;-77
2022/02/09 00:23:15;;;;;;;6.95;2.50;;;;;;;;;;5048768;28;20237;-76
2022/02/09 00:28:34;;;;;;;4.82;3.03;;;;;;;;;;5043182;28;20190;-77
2022/02/09 00:31:25;;;;;;;3.70;2.75;;;;;;;;;;5048673;28;20201;-77
2022/02/09 00:34:13;;;;;;;3.53;2.70;;;;;;;;;;5050319;28;20191;-76
2022/02/09 00:39:45;;;;;;;4.32;3.00;;;;;;;;;;5032304;28;20191;-76
2022/02/09 00:42:26;;;;;;;2.80;2.60;;;;;;;;;;5051174;28;20222;-77
2022/02/09 00:45:19;;;;;;;2.92;2.63;;;;;;;;;;5043636;28;20187;-74
2022/02/09 00:59:28;;;;;;;2.88;2.67;;;;;;;;;;5043180;28;20206;-76
2022/02/09 01:38:16;;;;;;;3.55;2.88;;;;;;;;;;5046672;28;20214;-76
2022/02/09 01:57:20;;;;;;;4.45;2.75;;;;;;;;;;5049685;28;20202;-76
2022/02/09 01:59:48;;;;;;;6.05;3.10;;;;;;;;;;5039127;28;20187;-77
2022/02/09 02:02:16;;;;;;;2.42;2.15;;;;;;;;;;5048046;28;20210;-76
2022/02/09 02:04:45;;;;;;;3.00;2.70;;;;;;;;;;5045288;28;20192;-76
2022/02/09 02:07:23;;;;;;;5.22;2.92;;;;;;;;;;5047695;28;20190;-76
2022/02/09 02:09:50;;;;;;;3.22;2.50;;;;;;;;;;5052505;28;20236;-75
2022/02/09 02:12:20;;;;;;;3.40;2.70;;;;;;;;;;5048984;28;20268;-75
2022/02/09 02:14:55;;;;;;;2.60;2.40;;;;;;;;;;5048999;28;20193;-76
2022/02/09 02:17:31;;;;;;;5.28;2.90;;;;;;;;;;5053230;28;20530;-75
2022/02/09 02:20:10;;;;;;;3.75;2.88;;;;;;;;;;5052890;28;20190;-76
2022/02/09 02:22:48;;;;;;;3.45;3.15;;;;;;;;;;5040906;28;20207;-75
2022/02/09 02:25:43;;;;;;;2.83;2.63;;;;;;;;;;5051502;28;20715;-75
2022/02/09 02:28:38;;;;;;;3.95;2.47;;;;;;;;;;5043501;28;20201;-75
2022/02/09 02:31:33;;;;;;;3.08;2.78;;;;;;;;;;5043558;28;20205;-75
2022/02/09 02:34:42;;;;;;;4.57;2.80;;;;;;;;;;5043208;28;20580;-75
2022/02/09 02:37:35;;;;;;;2.53;2.33;;;;;;;;;;5046936;28;20195;-75
2022/02/09 02:46:20;;;;;;;2.00;1.80;;;;;;;;;;5143832;27;20291;-72
2022/02/09 02:57:21;;;;;;;2.05;1.85;;;;;;;;;;5146150;27;20194;-71
2022/02/09 03:11:02;;;;;;;2.63;2.15;;;;;;;;;;5142640;27;20283;-72
2022/02/09 03:13:32;;;;;;;2.38;2.13;;;;;;;;;;5143714;27;20191;-71
2022/02/09 03:16:05;;;;;;;2.60;2.20;;;;;;;;;;5129947;27;20655;-71
2022/02/09 03:19:00;;;;;;;5.22;3.67;;;;;;;;;;5141657;27;20210;-71
2022/02/09 03:21:39;;;;;;;3.13;2.45;;;;;;;;;;5134103;27;20691;-72
2022/02/09 03:24:12;;;;;;;3.15;2.72;;;;;;;;;;5142923;27;20231;-71
2022/02/09 03:27:02;;;;;;;2.55;2.35;;;;;;;;;;5138290;27;20597;-71
2022/02/09 03:43:38;;;;;;;5.25;2.47;;;;;;;;;;5141462;27;20191;-72
2022/02/09 03:46:22;;;;;;;3.17;2.47;;;;;;;;;;5134605;27;20208;-72
2022/02/09 03:49:04;;;;;;;2.75;2.45;;;;;;;;;;5144262;27;20199;-71
2022/02/09 03:51:44;;;;;;;3.47;2.95;;;;;;;;;;5137047;27;20601;-71
2022/02/09 03:54:20;;;;;;;3.30;2.72;;;;;;;;;;5130813;27;20283;-71
2022/02/09 03:57:00;;;;;;;2.92;2.40;;;;;;;;;;5122854;27;20200;-71
2022/02/09 03:59:30;;;;;;;3.25;2.75;;;;;;;;;;5118059;27;20196;-71
2022/02/09 04:01:57;;;;;;;2.80;2.60;;;;;;;;;;5126142;27;20216;-71
2022/02/09 04:04:26;;;;;;;3.90;3.38;;;;;;;;;;5131810;27;20192;-71
2022/02/09 04:06:53;;;;;;;3.15;2.80;;;;;;;;;;5124156;27;20659;-71
2022/02/09 04:09:25;;;;;;;2.75;2.28;;;;;;;;;;5134278;27;20199;-71
2022/02/09 04:12:00;;;;;;;2.65;2.45;;;;;;;;;;5124449;27;20679;-71
2022/02/09 04:14:34;;;;;;;3.83;3.15;;;;;;;;;;5119977;27;20192;-71
2022/02/09 04:17:13;;;;;;;3.17;2.15;;;;;;;;;;5121589;27;20195;-72
2022/02/09 04:19:58;;;;;;;2.85;2.45;;;;;;;;;;5127604;27;20654;-71
2022/02/09 04:35:58;;;;;;;2.65;2.45;;;;;;;;;;5124413;27;20215;-71
2022/02/09 04:36:51;;;;;;;2.60;2.40;;;;;;;;;;5127591;27;20206;-72
2022/02/09 04:39:25;;;;;;;2.58;2.17;;;;;;;;;;5124213;27;20191;-71
2022/02/09 04:42:21;;;;;;;3.20;2.90;;;;;;;;;;5132899;27;20268;-70
2022/02/09 04:45:13;;;;;;;2.85;2.25;;;;;;;;;;5131293;27;20216;-70
2022/02/09 04:47:51;;;;;;;2.72;2.50;;;;;;;;;;5120685;27;20291;-70
2022/02/09 04:50:21;;;;;;;3.17;2.15;;;;;;;;;;5127370;27;20249;-71
2022/02/09 04:53:22;;;;;;;3.28;2.40;;;;;;;;;;5122627;27;20196;-71
2022/02/09 04:55:55;;;;;;;2.47;2.10;;;;;;;;;;5132472;27;20661;-71
2022/02/09 04:58:41;;;;;;;3.65;2.05;;;;;;;;;;5133105;27;20196;-71
2022/02/09 05:01:16;;;;;;;4.13;3.17;;;;;;;;;;5118283;27;20610;-71
2022/02/09 05:04:05;;;;;;;2.55;2.28;;;;;;;;;;5128142;27;20198;-71
2022/02/09 05:18:05;;;;;;;3.55;3.25;;;;;;;;;;5122984;27;20191;-71
2022/02/09 05:21:19;;;;;;;3.65;3.33;;;;;;;;;;5114380;27;20223;-72
2022/02/09 05:24:01;;;;;;;3.75;3.00;;;;;;;;;;5112054;27;20197;-71
2022/02/09 05:26:39;;;;;;;3.63;3.33;;;;;;;;;;5119013;27;20192;-71
2022/02/09 05:29:06;;;;;;;3.67;3.38;;;;;;;;;;5119649;27;20200;-71
2022/02/09 05:31:33;;;;;;;3.08;2.70;;;;;;;;;;5122460;27;20195;-70
2022/02/09 05:34:00;;;;;;;3.42;3.13;;;;;;;;;;5122573;27;20202;-71
2022/02/09 05:36:27;;;;;;;3.20;2.80;;;;;;;;;;5126149;27;20468;-71
2022/02/09 05:38:55;;;;;;;3.03;2.53;;;;;;;;;;5122172;27;20197;-71
2022/02/09 05:41:22;;;;;;;4.32;2.70;;;;;;;;;;5120712;27;20212;-71
2022/02/09 05:43:50;;;;;;;4.25;3.10;;;;;;;;;;5136920;27;20215;-71
2022/02/09 05:46:53;;;;;;;3.00;2.72;;;;;;;;;;5126868;27;20216;-71
2022/02/09 05:49:35;;;;;;;4.20;3.80;;;;;;;;;;5130905;27;20194;-71
2022/02/09 05:52:06;;;;;;;3.90;3.00;;;;;;;;;;5123165;27;20188;-71
2022/02/09 05:54:58;;;;;;;3.20;2.40;;;;;;;;;;5124273;27;20603;-71
2022/02/09 05:57:32;;;;;;;2.70;2.50;;;;;;;;;;5128656;27;20250;-71
2022/02/09 06:00:00;;;;;;;3.20;2.83;;;;;;;;;;5122141;27;20197;-71
2022/02/09 06:02:27;;;;;;;3.90;3.25;;;;;;;;;;5127922;27;20216;-71
2022/02/09 06:04:56;;;;;;;3.00;2.80;;;;;;;;;;5131804;27;20597;-70
2022/02/09 06:07:23;;;;;;;3.33;2.92;;;;;;;;;;5115000;27;20549;-70
2022/02/09 06:09:50;;;;;;;3.53;3.22;;;;;;;;;;5127258;27;20204;-71
2022/02/09 06:12:23;;;;;;;2.90;2.60;;;;;;;;;;5119082;27;20280;-71
2022/02/09 06:15:20;;;;;;;3.28;2.97;;;;;;;;;;5126785;27;20625;-70
2022/02/09 06:20:33;;;;;;;3.47;3.17;;;;;;;;;;5126827;27;20647;-70
2022/02/09 06:23:00;;;;;;;3.42;3.13;;;;;;;;;;5112069;27;20300;-71
2022/02/09 06:25:30;;;;;;;2.95;2.70;;;;;;;;;;5116673;27;20595;-70
2022/02/09 06:27:57;;;;;;;2.80;2.60;;;;;;;;;;5111954;28;20200;-71
2022/02/09 06:30:24;;;;;;;3.05;2.85;;;;;;;;;;5124861;27;20658;-70
2022/02/09 06:32:52;;;;;;;3.17;2.90;;;;;;;;;;5125725;27;20216;-70
2022/02/09 06:35:19;;;;;;;3.45;3.15;;;;;;;;;;5125914;27;20191;-71
2022/02/09 06:37:48;;;;;;;3.35;2.35;;;;;;;;;;5122953;27;20272;-71
2022/02/09 06:40:17;;;;;;;3.30;3.10;;;;;;;;;;5120939;28;20196;-71
2022/02/09 06:42:44;;;;;;;3.05;2.75;;;;;;;;;;5127388;28;20215;-71
2022/02/09 06:45:17;;;;;;;2.92;2.63;;;;;;;;;;5116651;28;20277;-70
2022/02/09 06:47:44;;;;;;;3.67;2.60;;;;;;;;;;5112969;28;20204;-70
2022/02/09 06:50:19;;;;;;;2.72;2.35;;;;;;;;;;5117947;27;20677;-71
2022/02/09 06:52:56;;;;;;;2.60;2.40;;;;;;;;;;5126619;28;20207;-70
2022/02/09 06:55:24;;;;;;;2.67;2.47;;;;;;;;;;5125926;28;20576;-70
2022/02/09 06:58:03;;;;;;;3.45;3.13;;;;;;;;;;5127543;27;20839;-70
2022/02/09 07:00:31;;;;;;;2.55;2.35;;;;;;;;;;5118360;27;20255;-70
2022/02/09 07:02:58;;;;;;;5.97;2.97;;;;;;;;;;5119931;27;20215;-70
2022/02/09 07:05:27;;;;;;;3.80;2.95;;;;;;;;;;5122636;28;20192;-70
2022/02/09 07:07:54;;;;;;;3.00;2.70;;;;;;;;;;5127871;28;20196;-71
2022/02/09 07:10:21;;;;;;;2.60;2.38;;;;;;;;;;5119059;27;20208;-70
2022/02/09 07:12:48;;;;;;;4.82;2.80;;;;;;;;;;5122207;27;20649;-71
2022/02/09 07:15:25;;;;;;;2.95;2.38;;;;;;;;;;5120193;27;20242;-71
2022/02/09 07:17:52;;;;;;;3.60;2.90;;;;;;;;;;5114920;28;20200;-70
2022/02/09 07:20:23;;;;;;;2.97;2.60;;;;;;;;;;5125226;28;20188;-70
2022/02/09 07:22:54;;;;;;;3.22;2.60;;;;;;;;;;5122004;27;20224;-70
2022/02/09 07:25:30;;;;;;;2.92;2.60;;;;;;;;;;5117526;28;20470;-72
2022/02/09 07:27:58;;;;;;;3.38;2.70;;;;;;;;;;5120415;27;20287;-70
2022/02/09 07:30:26;;;;;;;3.97;2.47;;;;;;;;;;5132016;27;20204;-70
2022/02/09 07:32:53;;;;;;;3.75;2.60;;;;;;;;;;5124717;27;20200;-70
2022/02/09 07:35:20;;;;;;;3.03;2.47;;;;;;;;;;5127237;27;20748;-70
2022/02/09 07:37:48;;;;;;;3.92;2.50;;;;;;;;;;5124523;27;20800;-71
2022/02/09 07:40:18;;;;;;;3.75;2.20;;;;;;;;;;5126472;27;20651;-71
2022/02/09 07:42:48;;;;;;;3.20;2.67;;;;;;;;;;5127601;27;20321;-70
2022/02/09 07:45:42;;;;;;;3.10;2.10;;;;;;;;;;5124452;27;20216;-69
2022/02/09 07:48:38;;;;;;;2.78;2.40;;;;;;;;;;5118372;27;20741;-70
2022/02/09 07:51:36;;;;;;;4.22;3.20;;;;;;;;;;5121887;27;20221;-69
2022/02/09 07:54:03;;;;;;;2.28;2.00;;;;;;;;;;5123545;27;20263;-71
2022/02/09 07:56:32;;;;;;;3.25;2.20;;;;;;;;;;5123079;27;20199;-71
2022/02/09 07:59:00;;;;;;;3.15;2.95;;;;;;;;;;5111713;28;20199;-70
2022/02/09 08:01:27;;;;;;;2.30;1.90;;;;;;;;;;5115209;27;20200;-71
2022/02/09 08:03:54;;;;;;;2.35;2.15;;;;;;;;;;5122017;27;20695;-70
2022/02/09 08:06:24;;;;;;;4.68;3.20;;;;;;;;;;5118371;27;20648;-71
2022/02/09 08:08:52;;;;;;;3.38;3.08;;;;;;;;;;5123201;27;20299;-71
2022/02/09 08:11:24;;;;;;;4.72;3.22;;;;;;;;;;5116160;27;20220;-70
2022/02/09 08:28:17;;;;;;;4.55;4.15;;;;;;;;;;5146954;27;20236;-71
2022/02/09 08:31:01;;;;;;;5.00;4.55;;;;;;;;;;5126979;27;20202;-71
2022/02/09 08:33:28;;;;;;;5.53;3.53;;;;;;;;;;5131262;27;20187;-70
2022/02/09 08:35:56;;;;;;;4.82;3.97;;;;;;;;;;5129215;27;20188;-71
2022/02/09 08:38:28;;;;;;;4.47;3.30;;;;;;;;;;5116304;27;20211;-69
2022/02/09 08:40:55;;;;;;;3.28;2.97;;;;;;;;;;5125371;27;20201;-70
2022/02/09 08:43:22;;;;;;;4.47;3.85;;;;;;;;;;5132114;27;20675;-69
2022/02/09 08:45:50;;;;;;;4.00;3.33;;;;;;;;;;5115203;27;20215;-71
2022/02/09 08:48:20;;;;;;;3.95;3.40;;;;;;;;;;5121486;27;20644;-70
2022/02/09 08:50:49;;;;;;;4.05;3.45;;;;;;;;;;5118678;27;20192;-71
2022/02/09 08:53:17;;;;;;;5.25;4.28;;;;;;;;;;5115810;27;20601;-70
2022/02/09 08:55:44;;;;;;;11.82;3.85;;;;;;;;;;5128957;27;20196;-69
2022/02/09 08:58:12;;;;;;;4.43;4.03;;;;;;;;;;5113983;27;20579;-70
2022/02/09 09:00:40;;;;;;;3.83;3.50;;;;;;;;;;5122028;27;20198;-70
2022/02/09 09:03:15;;;;;;;6.22;4.13;;;;;;;;;;5133070;27;20222;-70
2022/02/09 09:05:46;;;;;;;4.80;3.67;;;;;;;;;;5131552;27;20253;-70
2022/02/09 09:11:22;;;;;;;5.53;4.32;;;;;;;;;;5118269;27;20227;-70
2022/02/09 09:58:10;;;;;;;8.73;3.50;;;;;;;;;;5119641;27;20240;-72
2022/02/09 10:03:49;;;;;;;4.07;3.67;;;;;;;;;;5119463;27;20622;-72
2022/02/09 10:34:08;;;;;;;4.28;3.75;;;;;;;;;;5121150;27;20261;-71
2022/02/09 10:36:44;;;;;;;4.57;3.75;;;;;;;;;;5114161;27;20606;-73
2022/02/09 10:39:14;;;;;;;3.97;3.58;;;;;;;;;;5119264;27;20200;-72
2022/02/09 10:41:51;;;;;;;4.93;3.40;;;;;;;;;;5121721;27;20295;-74
2022/02/09 10:44:22;;;;;;;3.65;3.30;;;;;;;;;;5115908;28;20219;-72
2022/02/09 10:46:51;;;;;;;6.00;3.47;;;;;;;;;;5119695;27;20192;-72
2022/02/09 10:49:20;;;;;;;4.15;3.53;;;;;;;;;;5128210;27;20663;-72
2022/02/09 10:51:51;;;;;;;4.47;3.92;;;;;;;;;;5119510;27;20204;-71
2022/02/09 10:54:19;;;;;;;3.45;3.08;;;;;;;;;;5121930;27;20195;-73
2022/02/09 10:56:47;;;;;;;3.80;3.47;;;;;;;;;;5125419;27;20200;-72
2022/02/09 10:59:16;;;;;;;7.03;3.80;;;;;;;;;;5119043;27;20273;-71
2022/02/09 11:01:44;;;;;;;4.40;3.35;;;;;;;;;;5107322;28;20640;-74
2022/02/09 11:04:11;;;;;;;3.25;3.03;;;;;;;;;;5114287;27;20223;-71
2022/02/09 11:06:40;;;;;;;4.00;3.22;;;;;;;;;;5122915;27;20211;-71
2022/02/09 11:09:07;;;;;;;4.57;3.42;;;;;;;;;;5132867;27;20253;-71
2022/02/09 11:11:37;;;;;;;2.65;2.45;;;;;;;;;;5131322;27;20208;-71
2022/02/09 11:14:04;;;;;;;4.78;3.42;;;;;;;;;;5126066;27;20286;-73
2022/02/09 11:16:34;;;;;;;3.15;2.85;;;;;;;;;;5119227;27;20662;-72
2022/02/09 11:19:02;;;;;;;3.35;3.05;;;;;;;;;;5130393;27;20200;-72
2022/02/09 11:21:31;;;;;;;5.38;3.55;;;;;;;;;;5127999;27;20735;-72
2022/02/09 11:24:01;;;;;;;2.88;2.60;;;;;;;;;;5125295;27;20219;-71
2022/02/09 11:26:37;;;;;;;4.38;2.53;;;;;;;;;;5122919;27;20632;-72
2022/02/09 11:29:19;;;;;;;2.83;2.53;;;;;;;;;;5126699;27;20669;-72
2022/02/09 11:32:10;;;;;;;3.40;3.05;;;;;;;;;;5124860;27;20203;-72
2022/02/09 11:34:53;;;;;;;2.60;2.00;;;;;;;;;;5129174;27;20192;-71
2022/02/09 11:37:27;;;;;;;3.72;2.60;;;;;;;;;;5120717;27;20609;-73
2022/02/09 11:39:57;;;;;;;3.05;2.75;;;;;;;;;;5119514;27;20295;-71
2022/02/09 11:42:25;;;;;;;3.00;2.47;;;;;;;;;;5120175;27;20683;-71
2022/02/09 11:44:57;;;;;;;4.85;3.10;;;;;;;;;;5122490;27;20306;-71
2022/02/09 11:47:41;;;;;;;4.35;3.00;;;;;;;;;;5127153;27;20233;-71
2022/02/09 11:58:47;;;;;;;3.63;2.78;;;;;;;;;;5115535;27;20191;-72
2022/02/09 12:09:54;;;;;;;3.50;2.42;;;;;;;;;;5109727;27;20634;-71
2022/02/09 12:12:40;;;;;;;2.70;2.50;;;;;;;;;;5119023;27;20670;-72
2022/02/09 12:15:14;;;;;;;2.67;2.35;;;;;;;;;;5123641;27;20199;-71
2022/02/09 12:17:51;;;;;;;3.20;2.90;;;;;;;;;;5124062;27;20203;-70
2022/02/09 12:20:23;;;;;;;2.28;2.00;;;;;;;;;;5120737;27;20201;-72
2022/02/09 12:23:06;;;;;;;2.10;1.90;;;;;;;;;;5118251;27;20735;-72
2022/02/09 12:25:41;;;;;;;6.78;3.65;;;;;;;;;;5128383;27;20207;-71
2022/02/09 12:28:09;;;;;;;6.32;2.67;;;;;;;;;;5123600;27;20578;-71
2022/02/09 12:30:37;;;;;;;2.20;2.00;;;;;;;;;;5123239;27;20583;-70
2022/02/09 12:33:04;;;;;;;2.72;2.53;;;;;;;;;;5131108;27;20230;-72
2022/02/09 12:35:31;;;;;;;3.05;2.45;;;;;;;;;;5124771;27;20200;-71
2022/02/09 12:37:58;;;;;;;2.33;2.13;;;;;;;;;;5121815;27;20196;-70
2022/02/09 12:40:33;;;;;;;2.30;2.03;;;;;;;;;;5126753;27;20196;-71
2022/02/09 12:43:00;;;;;;;5.10;3.00;;;;;;;;;;5124059;27;20278;-70
2022/02/09 12:45:31;;;;;;;2.63;2.42;;;;;;;;;;5129664;27;20215;-71
2022/02/09 12:48:00;;;;;;;2.60;2.33;;;;;;;;;;5123006;27;20193;-71
2022/02/09 12:50:30;;;;;;;4.15;2.33;;;;;;;;;;5123875;27;20559;-70
2022/02/09 12:52:57;;;;;;;2.17;1.98;;;;;;;;;;5118973;27;20257;-71
2022/02/09 12:55:25;;;;;;;2.85;2.65;;;;;;;;;;5112522;27;20201;-72
2022/02/09 12:57:53;;;;;;;3.63;2.97;;;;;;;;;;5139734;27;20199;-70
2022/02/09 13:00:27;;;;;;;2.75;2.55;;;;;;;;;;5126421;27;20492;-71
2022/02/09 13:02:57;;;;;;;3.70;2.92;;;;;;;;;;5134062;27;20273;-71
2022/02/09 13:05:24;;;;;;;5.60;2.28;;;;;;;;;;5126883;27;20586;-72
2022/02/09 13:07:52;;;;;;;3.22;2.63;;;;;;;;;;5108703;27;20208;-71
2022/02/09 13:10:23;;;;;;;3.08;2.35;;;;;;;;;;5132396;27;20207;-72
2022/02/09 13:12:50;;;;;;;9.95;3.30;;;;;;;;;;5116796;27;20204;-72
2022/02/09 13:15:21;;;;;;;3.13;2.92;;;;;;;;;;5126499;27;20214;-72
2022/02/09 13:21:37;;;;;;;2.67;2.30;;;;;;;;;;5123467;27;20222;-72
2022/02/09 13:24:11;;;;;;;2.28;2.08;;;;;;;;;;5110210;27;20220;-71
2022/02/09 13:52:37;;;;;;;2.70;2.50;;;;;;;;;;5115794;27;20264;-71
2022/02/09 14:15:03;;;;;;;3.47;3.17;;;;;;;;;;5120904;27;20326;-72
2022/02/09 14:48:47;;;;;;;3.67;2.80;;;;;;;;;;5107278;28;20772;-72
2022/02/09 14:53:58;;;;;;;4.63;3.28;;;;;;;;;;5111261;28;20279;-71
2022/02/09 14:56:39;;;;;;;3.72;3.35;;;;;;;;;;5123621;27;20194;-70
2022/02/09 14:59:08;;;;;;;4.70;3.00;;;;;;;;;;5122033;28;20189;-71
2022/02/09 15:01:43;;;;;;;3.97;3.38;;;;;;;;;;5118634;28;20643;-72
2022/02/09 15:04:26;;;;;;;3.05;2.78;;;;;;;;;;5127541;27;20243;-71
2022/02/09 15:07:04;;;;;;;4.28;3.78;;;;;;;;;;5107953;28;20200;-72
2022/02/09 15:09:43;;;;;;;3.53;3.15;;;;;;;;;;5108558;28;20262;-73
2022/02/09 15:12:19;;;;;;;5.07;3.47;;;;;;;;;;5107752;28;20582;-70
2022/02/09 15:15:02;;;;;;;3.38;2.85;;;;;;;;;;5112883;27;20405;-71
2022/02/09 15:17:43;;;;;;;3.15;2.78;;;;;;;;;;5125094;28;20200;-71
2022/02/09 15:20:39;;;;;;;5.97;3.15;;;;;;;;;;5110422;27;20201;-70
2022/02/09 15:23:07;;;;;;;4.00;3.10;;;;;;;;;;5116503;28;20204;-71
2022/02/09 15:25:35;;;;;;;5.55;3.67;;;;;;;;;;5109412;28;20618;-70
2022/02/09 15:28:04;;;;;;;3.72;2.83;;;;;;;;;;5107357;28;20220;-70
2022/02/09 15:30:37;;;;;;;3.65;3.20;;;;;;;;;;5106335;27;20209;-72
2022/02/09 15:33:06;;;;;;;4.07;2.85;;;;;;;;;;5107190;28;20205;-70
2022/02/09 15:35:36;;;;;;;4.68;3.75;;;;;;;;;;5128505;27;20196;-73
2022/02/09 15:38:09;;;;;;;3.97;3.30;;;;;;;;;;5120828;28;20200;-72
2022/02/09 15:40:46;;;;;;;3.78;3.20;;;;;;;;;;5115320;27;20205;-71
2022/02/09 15:43:38;;;;;;;5.65;4.15;;;;;;;;;;5107704;28;20672;-71
2022/02/09 15:57:27;;;;;;;5.38;3.50;;;;;;;;;;5115285;27;20244;-72
2022/02/09 16:05:42;;;;;;;5.25;3.22;;;;;;;;;;5127308;27;20223;-73
2022/02/09 16:08:47;;;;;;;5.15;3.55;;;;;;;;;;5123246;27;20199;-73
2022/02/09 16:11:34;;;;;;;4.72;3.90;;;;;;;;;;5116306;27;20316;-72
2022/02/09 16:17:20;;;;;;;4.03;3.10;;;;;;;;;;5130680;27;20211;-73
2022/02/09 16:22:30;;;;;;;4.82;4.32;;;;;;;;;;5110080;28;20192;-72
2022/02/09 16:25:21;;;;;;;4.80;3.78;;;;;;;;;;5110044;28;20695;-73
2022/02/09 16:33:33;;;;;;;5.45;4.70;;;;;;;;;;5108922;28;20691;-73
2022/02/09 16:36:46;;;;;;;8.95;5.13;;;;;;;;;;5116565;27;20203;-73
2022/02/09 16:44:37;;;;;;;6.65;4.30;;;;;;;;;;5118171;27;20230;-73
2022/02/09 16:47:08;;;;;;;6.78;4.03;;;;;;;;;;5118372;27;20683;-73
2022/02/09 16:49:44;;;;;;;4.10;3.80;;;;;;;;;;5127810;27;20206;-73
2022/02/09 16:52:16;;;;;;;4.75;3.92;;;;;;;;;;5118678;27;20561;-72
2022/02/09 16:54:51;;;;;;;3.65;3.25;;;;;;;;;;5120038;27;20227;-73
2022/02/09 17:08:41;;;;;;;4.30;3.00;;;;;;;;;;5113182;27;20559;-74
2022/02/09 17:15:30;;;;;;;7.18;3.00;;;;;;;;;;5122303;27;20680;-73
2022/02/09 17:19:34;;;;;;;3.75;2.78;;;;;;;;;;5108776;27;20188;-73
2022/02/09 17:22:01;;;;;;;3.03;2.70;;;;;;;;;;5118229;27;20196;-72
2022/02/09 17:24:28;;;;;;;2.72;2.53;;;;;;;;;;5125435;27;20220;-73
2022/02/09 17:26:56;;;;;;;4.97;3.03;;;;;;;;;;5114019;27;20743;-73
2022/02/09 17:29:31;;;;;;;4.20;3.78;;;;;;;;;;5113031;27;20200;-73
2022/02/09 17:32:09;;;;;;;3.40;3.10;;;;;;;;;;5113010;27;20196;-72
2022/02/09 17:34:54;;;;;;;3.17;2.50;;;;;;;;;;5118639;27;20195;-73
2022/02/09 17:37:46;;;;;;;4.30;3.50;;;;;;;;;;5122426;27;20207;-72
2022/02/09 17:54:22;;;;;;;3.08;2.58;;;;;;;;;;5115987;27;20697;-73
2022/02/09 17:56:51;;;;;;;5.03;3.47;;;;;;;;;;5114784;27;20302;-72
2022/02/09 17:59:24;;;;;;;4.38;3.97;;;;;;;;;;5127215;27;20200;-74
2022/02/09 18:01:51;;;;;;;6.00;3.80;;;;;;;;;;5128588;27;20637;-75
2022/02/09 18:04:21;;;;;;;2.50;2.30;;;;;;;;;;5122933;27;20211;-73
2022/02/09 18:06:55;;;;;;;5.10;3.03;;;;;;;;;;5124815;27;20261;-73
2022/02/09 18:09:29;;;;;;;3.50;3.20;;;;;;;;;;5113627;27;20229;-73
2022/02/09 18:12:07;;;;;;;3.60;3.10;;;;;;;;;;5119883;27;20213;-73
2022/02/09 18:15:06;;;;;;;5.28;3.53;;;;;;;;;;5128143;27;20641;-74
2022/02/09 18:26:55;;;;;;;6.07;5.10;;;;;;;;;;5105423;27;20366;-72
2022/02/09 18:29:26;;;;;;;5.70;4.00;;;;;;;;;;5125632;27;20196;-72
2022/02/09 18:37:43;;;;;;;4.70;3.80;;;;;;;;;;5125241;27;20654;-73
2022/02/09 18:37:46;;;;;;;3.90;3.33;;;;;;;;;;5124699;27;20198;-73
2022/02/09 18:43:02;;;;;;;3.03;2.60;;;;;;;;;;5101313;27;20195;-73
2022/02/09 18:45:38;;;;;;;4.95;4.45;;;;;;;;;;5124307;28;20218;-74
2022/02/09 18:48:26;;;;;;;4.55;3.95;;;;;;;;;;5124902;28;20491;-73
2022/02/09 18:59:27;;;;;;;4.10;3.15;;;;;;;;;;5126470;28;20195;-74
2022/02/09 19:02:07;;;;;;;5.47;3.78;;;;;;;;;;5124257;28;20203;-73
2022/02/09 19:04:41;;;;;;;5.13;3.47;;;;;;;;;;5128556;27;20299;-74
2022/02/09 19:07:35;;;;;;;2.35;2.10;;;;;;;;;;5115734;28;20563;-73
2022/02/09 19:16:00;;;;;;;4.20;3.80;;;;;;;;;;5123418;27;20252;-73
2022/02/09 19:27:03;;;;;;;3.05;2.75;;;;;;;;;;5118300;27;20252;-74
2022/02/09 19:32:30;;;;;;;4.60;2.67;;;;;;;;;;5132506;27;20199;-73
2022/02/09 19:40:56;;;;;;;3.78;3.47;;;;;;;;;;5117634;27;20917;-73
2022/02/09 19:46:18;;;;;;;2.33;2.13;;;;;;;;;;5113641;28;20227;-73
2022/02/09 19:48:53;;;;;;;3.80;2.40;;;;;;;;;;5114730;27;20716;-73
2022/02/09 19:51:35;;;;;;;3.20;2.90;;;;;;;;;;5123114;27;20192;-73
2022/02/09 19:54:10;;;;;;;2.50;2.20;;;;;;;;;;5121648;27;20192;-73
2022/02/09 19:56:40;;;;;;;4.45;3.40;;;;;;;;;;5117437;27;20177;-75
2022/02/09 19:59:14;;;;;;;2.50;2.25;;;;;;;;;;5118084;27;20678;-73
2022/02/09 20:01:43;;;;;;;3.22;2.95;;;;;;;;;;5125694;27;20648;-73
2022/02/09 20:04:10;;;;;;;4.35;3.95;;;;;;;;;;5125408;27;20196;-73
2022/02/09 20:06:37;;;;;;;5.20;3.53;;;;;;;;;;5120197;27;20216;-74
2022/02/09 20:09:06;;;;;;;3.28;2.72;;;;;;;;;;5113107;27;20200;-73
2022/02/09 20:11:35;;;;;;;2.53;2.30;;;;;;;;;;5119187;27;20261;-73
2022/02/09 20:14:02;;;;;;;4.18;3.30;;;;;;;;;;5123222;27;20284;-73
2022/02/09 20:16:29;;;;;;;4.57;4.07;;;;;;;;;;5127822;27;20211;-74
2022/02/09 20:18:58;;;;;;;2.50;2.30;;;;;;;;;;5136194;27;20209;-74
2022/02/09 20:21:27;;;;;;;2.65;2.40;;;;;;;;;;5122563;27;20283;-74
2022/02/09 20:23:54;;;;;;;3.08;2.60;;;;;;;;;;5125636;27;20263;-74
2022/02/09 20:26:24;;;;;;;2.95;2.15;;;;;;;;;;5119325;27;20307;-73
2022/02/09 20:28:56;;;;;;;2.65;2.45;;;;;;;;;;5122429;27;20223;-74
2022/02/09 20:31:28;;;;;;;3.42;2.80;;;;;;;;;;5130506;27;20722;-74
2022/02/09 20:33:59;;;;;;;4.45;3.22;;;;;;;;;;5133939;27;20203;-73
2022/02/09 20:36:26;;;;;;;5.43;4.25;;;;;;;;;;5123001;27;20196;-73
2022/02/09 20:38:57;;;;;;;4.50;3.38;;;;;;;;;;5127769;27;20257;-74
2022/02/09 20:41:25;;;;;;;3.22;3.00;;;;;;;;;;5132363;27;20255;-74
2022/02/09 20:44:06;;;;;;;4.95;3.40;;;;;;;;;;5123437;27;20208;-74
2022/02/09 20:46:34;;;;;;;3.28;2.97;;;;;;;;;;5130256;27;20338;-74
2022/02/09 20:49:01;;;;;;;4.85;3.70;;;;;;;;;;5131223;27;20188;-74
2022/02/09 20:51:29;;;;;;;4.68;3.13;;;;;;;;;;5122831;27;20593;-73
2022/02/09 20:53:58;;;;;;;4.68;3.80;;;;;;;;;;5119369;27;20257;-73
2022/02/09 20:56:26;;;;;;;3.15;2.85;;;;;;;;;;5127174;27;20286;-74
2022/02/09 20:58:59;;;;;;;7.05;3.38;;;;;;;;;;5123177;27;20200;-75
2022/02/09 21:01:34;;;;;;;4.55;3.25;;;;;;;;;;5123568;27;20197;-73
2022/02/09 21:04:05;;;;;;;3.10;2.90;;;;;;;;;;5121347;27;20552;-73
2022/02/09 21:06:48;;;;;;;3.35;2.55;;;;;;;;;;5114175;27;20278;-73
2022/02/09 21:09:24;;;;;;;3.45;3.15;;;;;;;;;;5129912;27;20241;-73
2022/02/09 21:12:01;;;;;;;3.30;2.97;;;;;;;;;;5127757;27;20202;-74
2022/02/09 21:14:49;;;;;;;5.55;3.53;;;;;;;;;;5119829;27;20629;-74
2022/02/09 21:17:30;;;;;;;6.53;5.68;;;;;;;;;;5127435;27;20665;-74
2022/02/09 21:20:26;;;;;;;10.55;5.95;;;;;;;;;;5116421;27;20264;-73
2022/02/09 21:26:17;;;;;;;4.65;4.18;;;;;;;;;;5131783;27;20316;-74
2022/02/09 21:45:35;;;;;;;4.10;3.25;;;;;;;;;;5117944;27;20244;-73
2022/02/09 21:53:53;;;;;;;4.80;3.28;;;;;;;;;;5075544;27;20678;-73
2022/02/09 21:56:25;;;;;;;5.70;4.97;;;;;;;;;;5118977;27;20559;-73
2022/02/09 22:16:16;;;;;;;5.40;4.57;;;;;;;;;;5058797;28;20212;-73
2022/02/09 22:21:21;;;;;;;5.20;3.60;;;;;;;;;;5061852;28;20270;-74
2022/02/09 22:27:03;;;;;;;5.20;4.70;;;;;;;;;;5061121;28;20201;-74
2022/02/09 22:32:46;;;;;;;5.35;4.35;;;;;;;;;;5057855;28;20183;-75
2022/02/09 22:46:35;;;;;;;4.38;3.75;;;;;;;;;;5053041;28;20221;-74
2022/02/09 22:49:04;;;;;;;5.47;4.97;;;;;;;;;;5063070;28;20190;-74
2022/02/09 22:54:34;;;;;;;4.45;4.05;;;;;;;;;;5061621;28;20562;-74
2022/02/09 22:57:02;;;;;;;5.47;4.28;;;;;;;;;;5063632;28;20709;-74
2022/02/09 22:59:33;;;;;;;5.65;4.40;;;;;;;;;;5064121;28;20232;-73
2022/02/09 23:02:05;;;;;;;4.53;3.53;;;;;;;;;;5057711;28;20202;-74
2022/02/09 23:04:41;;;;;;;3.65;3.20;;;;;;;;;;5058655;28;20198;-74
2022/02/09 23:07:19;;;;;;;4.15;3.30;;;;;;;;;;5051340;28;20561;-74
2022/02/09 23:09:58;;;;;;;4.90;3.30;;;;;;;;;;5062700;28;20297;-74
2022/02/09 23:12:33;;;;;;;3.53;3.22;;;;;;;;;;5055817;28;20202;-73
2022/02/09 23:15:21;;;;;;;5.35;4.03;;;;;;;;;;5048296;28;20622;-73
2022/02/09 23:18:21;;;;;;;3.17;2.85;;;;;;;;;;5051716;28;20226;-73
2022/02/09 23:21:33;;;;;;;4.47;4.03;;;;;;;;;;5049244;28;20227;-74
2022/02/09 23:27:12;;;;;;;3.42;2.92;;;;;;;;;;5049205;28;20203;-73
2022/02/09 23:54:49;;;;;;;5.28;3.90;;;;;;;;;;5037419;28;20221;-73
